Time;durP1;ratioP1;P1;durP2;ratioP2;P2;SDS_P1;SDS_P2;PMS_P1;PMS_P2;Temp;Humidity;BMP_temperature;BMP_pressure;BME280_temperature;BME280_humidity;BME280_pressure;Samples;Min_cycle;Max_cycle;Signal;HPM_P1;HPM_P2
2022/08/10 00:01:09;;;;;;;7.28;5.53;;;;;;;21.02;77.84;93278.28;5101917;28;20480;-79
2022/08/10 00:03:36;;;;;;;7.68;5.88;;;;;;;20.97;80.32;93275.75;5100992;28;20047;-80
2022/08/10 00:06:03;;;;;;;10.27;6.32;;;;;;;20.96;79.34;93277.56;5104730;28;20439;-80
2022/08/10 00:08:30;;;;;;;14.30;7.38;;;;;;;20.61;83.47;93274.13;5097754;28;20082;-80
2022/08/10 00:10:57;;;;;;;8.63;6.78;;;;;;;20.70;80.15;93274.31;5089824;28;20048;-79
2022/08/10 00:13:26;;;;;;;10.05;6.28;;;;;;;20.70;80.53;93272.47;5106619;28;20047;-80
2022/08/10 00:15:54;;;;;;;6.70;5.65;;;;;;;20.62;80.62;93267.06;5089740;28;20071;-79
2022/08/10 00:18:21;;;;;;;10.52;5.60;;;;;;;20.73;80.16;93273.75;5089843;28;20491;-78
2022/08/10 00:20:47;;;;;;;7.70;5.63;;;;;;;20.77;78.35;93272.19;5089895;28;20097;-79
2022/08/10 00:23:14;;;;;;;9.48;5.82;;;;;;;20.63;79.39;93258.97;5089876;28;20044;-79
2022/08/10 00:25:41;;;;;;;9.30;6.00;;;;;;;20.72;78.93;93264.38;5090159;28;20043;-79
2022/08/10 00:28:08;;;;;;;9.13;6.38;;;;;;;20.72;78.06;93276.63;5089872;28;20048;-79
2022/08/10 00:30:34;;;;;;;11.35;6.50;;;;;;;20.71;78.34;93270.66;5089331;28;20442;-79
2022/08/10 00:33:03;;;;;;;10.55;6.43;;;;;;;20.60;82.28;93269.94;5089646;28;20036;-79
2022/08/10 00:35:30;;;;;;;9.55;5.68;;;;;;;20.30;78.80;93227.34;5106806;28;20055;-79
2022/08/10 00:37:56;;;;;;;12.32;7.47;;;;;;;20.49;82.11;93273.66;5089342;28;20488;-79
2022/08/10 00:40:23;;;;;;;11.05;7.30;;;;;;;20.46;81.13;93271.59;5089632;28;20565;-79
2022/08/10 00:42:50;;;;;;;7.85;6.00;;;;;;;20.10;84.61;93272.56;5089576;28;21771;-79
2022/08/10 00:45:17;;;;;;;10.70;6.50;;;;;;;20.05;87.45;93272.56;5106813;28;20085;-79
2022/08/10 00:47:44;;;;;;;8.38;6.03;;;;;;;19.94;86.94;93277.78;5110133;28;20044;-79
2022/08/10 00:50:12;;;;;;;7.90;6.13;;;;;;;20.01;85.29;93273.09;5109325;28;20047;-79
2022/08/10 00:52:40;;;;;;;7.40;5.55;;;;;;;19.78;87.63;93258.81;5109534;28;20043;-80
2022/08/10 00:55:07;;;;;;;8.65;6.28;;;;;;;19.81;86.46;93267.94;5109740;28;20449;-80
2022/08/10 00:57:35;;;;;;;6.82;5.10;;;;;;;19.73;89.53;93266.66;5109537;28;20389;-79
2022/08/10 01:00:02;;;;;;;8.45;5.30;;;;;;;19.88;85.42;93274.44;5109281;28;20147;-79
2022/08/10 01:02:30;;;;;;;5.95;4.53;;;;;;;19.96;88.25;93280.13;5109553;28;20044;-79
2022/08/10 01:04:58;;;;;;;7.50;4.80;;;;;;;19.93;89.36;93285.88;5109227;28;20050;-79
2022/08/10 01:07:39;;;;;;;7.22;5.78;;;;;;;19.73;89.31;93279.69;5109229;28;20044;-79
2022/08/10 01:10:19;;;;;;;7.80;5.50;;;;;;;19.34;94.47;93283.66;5109456;28;20044;-78
2022/08/10 01:12:51;;;;;;;8.70;5.53;;;;;;;19.17;97.96;93283.94;5109173;28;20048;-79
2022/08/10 01:15:24;;;;;;;8.88;6.07;;;;;;;19.33;95.00;93287.31;5107590;28;20104;-79
2022/08/10 01:17:56;;;;;;;13.30;6.45;;;;;;;19.27;94.43;93283.94;5108715;28;20097;-78
2022/08/10 01:20:33;;;;;;;17.92;8.50;;;;;;;19.18;99.34;93288.91;5100607;28;20056;-80
2022/08/10 01:23:51;;;;;;;12.02;6.93;;;;;;;18.73;100.00;93279.97;5101134;28;20073;-80
2022/08/10 01:26:35;;;;;;;24.80;8.13;;;;;;;18.50;100.00;93275.00;5089028;28;20040;-79
2022/08/10 01:29:32;;;;;;;12.93;7.93;;;;;;;18.46;100.00;93263.56;5093238;28;20070;-78
2022/08/10 01:32:04;;;;;;;11.05;7.30;;;;;;;18.81;99.02;93288.09;5093257;28;20060;-78
2022/08/10 01:34:36;;;;;;;14.30;8.15;;;;;;;19.01;97.69;93286.53;5098568;28;20085;-78
2022/08/10 01:37:08;;;;;;;23.40;9.55;;;;;;;18.95;97.15;93266.75;5093225;28;20048;-79
2022/08/10 01:39:39;;;;;;;18.48;8.48;;;;;;;19.23;94.38;93283.69;5093267;28;20044;-79
2022/08/10 01:42:07;;;;;;;20.90;8.55;;;;;;;19.33;93.23;93276.88;5093245;28;20073;-79
2022/08/10 01:44:40;;;;;;;12.88;8.02;;;;;;;19.39;95.11;93288.88;5105459;28;20051;-79
2022/08/10 01:50:03;;;;;;;16.90;8.68;;;;;;;19.47;91.16;93280.53;5070179;28;20059;-80
2022/08/10 01:52:32;;;;;;;19.10;8.50;;;;;;;19.29;91.01;93255.00;5092080;28;20048;-80
2022/08/10 01:54:59;;;;;;;15.02;8.00;;;;;;;19.39;92.43;93262.06;5091693;28;20043;-79
2022/08/10 01:57:28;;;;;;;13.75;7.38;;;;;;;19.44;92.21;93277.66;5106242;28;20052;-80
2022/08/10 01:59:58;;;;;;;12.45;8.18;;;;;;;19.46;90.38;93275.56;5097504;28;20097;-80
2022/08/10 02:02:26;;;;;;;14.45;7.18;;;;;;;19.47;90.64;93280.53;5103556;28;20044;-81
2022/08/10 02:04:55;;;;;;;15.93;7.90;;;;;;;19.19;90.98;93243.59;5100044;28;20047;-80
2022/08/10 02:07:26;;;;;;;13.70;7.53;;;;;;;19.32;93.31;93283.16;5095130;28;20488;-79
2022/08/10 02:09:58;;;;;;;11.02;6.82;;;;;;;19.34;92.28;93279.25;5097052;28;20051;-80
2022/08/10 02:12:30;;;;;;;11.13;7.07;;;;;;;19.39;91.19;93270.63;5096859;28;20056;-79
2022/08/10 02:15:01;;;;;;;8.95;6.15;;;;;;;19.19;97.19;93274.03;5099514;28;20036;-80
2022/08/10 02:17:33;;;;;;;9.20;7.53;;;;;;;19.12;95.14;93265.72;5095655;28;20055;-80
2022/08/10 02:20:03;;;;;;;11.38;6.97;;;;;;;19.18;94.61;93269.88;5092631;28;20039;-79
2022/08/10 02:22:31;;;;;;;13.32;7.38;;;;;;;19.20;93.35;93276.38;5092360;28;20051;-80
2022/08/10 02:25:02;;;;;;;11.02;6.32;;;;;;;19.17;93.93;93269.09;5091996;28;20389;-79
2022/08/10 02:27:30;;;;;;;8.27;6.35;;;;;;;19.19;94.07;93268.84;5110524;28;20052;-80
2022/08/10 02:30:00;;;;;;;9.55;6.53;;;;;;;19.15;96.63;93265.97;5095780;28;20048;-80
2022/08/10 02:32:28;;;;;;;9.60;5.97;;;;;;;19.12;95.35;93276.91;5092113;28;20048;-79
2022/08/10 02:34:56;;;;;;;7.57;5.55;;;;;;;19.06;95.53;93251.91;5091341;28;20491;-79
2022/08/10 02:37:26;;;;;;;9.10;5.85;;;;;;;19.12;97.36;93266.47;5109510;28;20055;-80
2022/08/10 02:39:53;;;;;;;8.00;6.00;;;;;;;18.76;100.00;93243.03;5111950;28;20551;-80
2022/08/10 02:42:24;;;;;;;9.93;5.93;;;;;;;18.97;99.53;93277.66;5112117;28;20047;-81
2022/08/10 02:44:57;;;;;;;10.45;6.18;;;;;;;18.88;100.00;93271.44;5112247;28;20089;-80
2022/08/10 02:47:32;;;;;;;9.82;6.13;;;;;;;18.74;100.00;93278.97;5112467;28;20096;-80
2022/08/10 02:50:07;;;;;;;8.95;6.05;;;;;;;18.58;100.00;93265.94;5111608;28;20050;-80
2022/08/10 02:52:40;;;;;;;8.88;6.70;;;;;;;18.58;100.00;93260.72;5111866;28;20532;-81
2022/08/10 02:55:14;;;;;;;8.88;6.60;;;;;;;18.52;100.00;93277.38;5111591;28;20039;-81
2022/08/10 02:57:48;;;;;;;8.82;6.28;;;;;;;18.56;100.00;93281.78;5111867;28;20039;-80
2022/08/10 03:00:15;;;;;;;14.18;6.70;;;;;;;18.44;100.00;93281.25;5111423;28;20085;-79
2022/08/10 03:02:46;;;;;;;15.15;6.97;;;;;;;18.34;100.00;93270.81;5111909;28;20414;-82
2022/08/10 03:05:18;;;;;;;12.57;7.40;;;;;;;17.90;100.00;93190.34;5111625;28;20075;-81
2022/08/10 03:07:51;;;;;;;10.85;7.38;;;;;;;18.50;100.00;93271.63;5111582;28;20112;-79
2022/08/10 03:10:24;;;;;;;10.60;7.07;;;;;;;18.69;100.00;93288.31;5111893;28;20051;-80
2022/08/10 03:12:56;;;;;;;9.85;6.85;;;;;;;18.68;100.00;93284.16;5111066;28;20389;-78
2022/08/10 03:15:24;;;;;;;10.57;6.75;;;;;;;18.70;100.00;93295.06;5111682;28;20449;-79
2022/08/10 03:17:55;;;;;;;9.70;7.53;;;;;;;18.69;100.00;93295.34;5111277;28;20043;-81
2022/08/10 03:20:23;;;;;;;13.25;6.82;;;;;;;18.69;100.00;93298.72;5111377;28;20054;-79
2022/08/10 03:22:51;;;;;;;9.45;6.75;;;;;;;18.72;100.00;93299.25;5111203;28;20503;-78
2022/08/10 03:25:22;;;;;;;9.70;6.78;;;;;;;18.81;100.00;93297.69;5111106;28;20044;-77
2022/08/10 03:27:50;;;;;;;9.00;5.88;;;;;;;18.78;100.00;93298.19;5111120;28;20491;-80
2022/08/10 03:30:17;;;;;;;10.93;6.47;;;;;;;18.81;100.00;93290.69;5110993;28;20120;-80
2022/08/10 03:32:46;;;;;;;7.45;5.85;;;;;;;18.72;100.00;93281.81;5110885;28;20427;-78
2022/08/10 03:35:16;;;;;;;11.20;5.72;;;;;;;18.96;100.00;93307.34;5110762;28;20100;-79
2022/08/10 03:37:43;;;;;;;9.40;6.32;;;;;;;18.96;100.00;93315.16;5110782;28;20060;-79
2022/08/10 03:40:10;;;;;;;10.48;6.85;;;;;;;18.95;100.00;93314.38;5110310;28;20036;-77
2022/08/10 03:42:39;;;;;;;10.13;5.95;;;;;;;18.98;100.00;93312.28;5110672;28;20104;-77
2022/08/10 03:45:07;;;;;;;8.20;5.85;;;;;;;18.90;100.00;93310.97;5110639;28;20548;-77
2022/08/10 03:47:39;;;;;;;8.70;6.22;;;;;;;18.93;100.00;93311.25;5110849;28;20054;-77
2022/08/10 03:50:06;;;;;;;9.95;6.22;;;;;;;18.95;100.00;93313.59;5110647;28;20130;-77
2022/08/10 03:52:35;;;;;;;9.93;6.15;;;;;;;18.98;100.00;93318.25;5110675;28;20043;-77
2022/08/10 03:55:03;;;;;;;8.85;6.35;;;;;;;18.90;100.00;93314.38;5110721;28;20043;-77
2022/08/10 03:57:30;;;;;;;8.40;6.25;;;;;;;18.98;100.00;93318.25;5110772;28;20044;-77
2022/08/10 03:59:57;;;;;;;8.60;5.85;;;;;;;19.00;99.88;93318.00;5110144;28;20548;-79
2022/08/10 04:02:25;;;;;;;7.15;5.80;;;;;;;19.05;100.00;93323.25;5110331;28;20532;-78
2022/08/10 04:04:52;;;;;;;8.27;6.60;;;;;;;19.00;100.00;93311.00;5110275;28;20065;-78
2022/08/10 04:07:19;;;;;;;10.25;6.13;;;;;;;19.08;98.52;93322.75;5110512;28;20108;-77
2022/08/10 04:09:47;;;;;;;11.25;6.07;;;;;;;19.17;99.53;93325.59;5110166;28;20084;-78
2022/08/10 04:12:15;;;;;;;9.68;6.50;;;;;;;19.16;98.08;93329.25;5110245;28;20061;-78
2022/08/10 04:14:41;;;;;;;9.32;5.72;;;;;;;19.17;98.57;93334.19;5110486;28;20043;-78
2022/08/10 04:17:08;;;;;;;12.32;6.88;;;;;;;19.10;97.81;93318.03;5110083;28;20058;-78
2022/08/10 04:19:41;;;;;;;8.52;6.50;;;;;;;19.22;97.53;93333.41;5109850;28;20046;-78
2022/08/10 04:22:13;;;;;;;10.63;5.63;;;;;;;19.21;96.48;93324.06;5110364;28;20043;-78
2022/08/10 04:24:43;;;;;;;13.05;7.07;;;;;;;19.25;96.37;93334.72;5110199;28;20067;-78
2022/08/10 04:27:11;;;;;;;11.77;7.53;;;;;;;19.25;96.64;93329.53;5109989;28;20043;-78
2022/08/10 04:29:39;;;;;;;12.80;6.57;;;;;;;19.27;98.20;93330.81;5109575;28;20047;-80
2022/08/10 04:32:09;;;;;;;9.30;7.03;;;;;;;19.07;99.42;93301.13;5110040;28;20115;-79
2022/08/10 04:34:37;;;;;;;12.50;7.30;;;;;;;19.15;100.00;93328.47;5109625;28;20036;-78
2022/08/10 04:37:05;;;;;;;11.40;7.60;;;;;;;19.13;100.00;93324.56;5109402;28;20120;-79
2022/08/10 04:39:32;;;;;;;12.23;6.95;;;;;;;19.25;100.00;93332.13;5110122;28;20047;-79
2022/08/10 04:41:59;;;;;;;12.10;6.82;;;;;;;19.29;98.45;93331.31;5109700;28;20062;-79
2022/08/10 04:44:28;;;;;;;11.88;7.05;;;;;;;19.36;97.48;93336.28;5109945;28;20447;-79
2022/08/10 04:46:54;;;;;;;11.90;7.63;;;;;;;19.42;97.16;93329.22;5109411;28;20058;-80
2022/08/10 04:49:21;;;;;;;11.27;7.15;;;;;;;19.45;97.49;93328.72;5109722;28;20494;-79
2022/08/10 04:51:48;;;;;;;14.82;7.80;;;;;;;19.50;96.72;93332.09;5097290;28;20048;-79
2022/08/10 04:54:15;;;;;;;15.50;7.22;;;;;;;19.56;97.52;93332.09;5103839;28;20052;-79
2022/08/10 04:56:42;;;;;;;15.13;8.05;;;;;;;19.48;97.09;93313.34;5089552;28;20101;-78
2022/08/10 04:59:11;;;;;;;15.50;7.47;;;;;;;19.54;98.28;93318.56;5089543;28;20055;-78
2022/08/10 05:01:40;;;;;;;11.75;6.75;;;;;;;19.59;98.59;93326.38;5089658;28;20040;-78
2022/08/10 05:04:07;;;;;;;10.95;7.25;;;;;;;19.68;100.00;93334.44;5089882;28;20048;-81
2022/08/10 05:06:34;;;;;;;10.50;6.75;;;;;;;19.62;100.00;93336.25;5089719;28;20048;-79
2022/08/10 05:09:00;;;;;;;11.50;7.28;;;;;;;19.61;100.00;93335.47;5089202;28;20090;-78
2022/08/10 05:11:27;;;;;;;9.70;6.97;;;;;;;19.58;100.00;93330.78;5089764;28;20047;-79
2022/08/10 05:13:54;;;;;;;9.63;6.75;;;;;;;19.51;100.00;93322.47;5089217;28;20098;-79
2022/08/10 05:16:21;;;;;;;13.05;6.72;;;;;;;19.61;100.00;93329.47;5087512;28;20139;-79
2022/08/10 05:18:49;;;;;;;10.30;7.22;;;;;;;19.65;100.00;93316.69;5087753;28;20109;-79
2022/08/10 05:21:16;;;;;;;10.05;6.85;;;;;;;19.84;100.00;93332.56;5089242;28;20051;-79
2022/08/10 05:23:42;;;;;;;9.75;6.60;;;;;;;19.79;100.00;93316.94;5089247;28;20048;-80
2022/08/10 05:26:09;;;;;;;9.68;6.45;;;;;;;19.84;100.00;93333.34;5089722;28;20044;-78
2022/08/10 05:28:36;;;;;;;13.77;6.43;;;;;;;19.98;100.00;93332.81;5089077;28;20051;-78
2022/08/10 05:31:03;;;;;;;11.07;6.72;;;;;;;20.03;98.97;93330.97;5089370;28;20044;-80
2022/08/10 05:33:30;;;;;;;13.90;7.13;;;;;;;20.08;98.87;93319.00;5089241;28;20105;-80
2022/08/10 05:35:59;;;;;;;12.82;6.70;;;;;;;20.34;97.17;93324.88;5088837;28;20052;-80
2022/08/10 05:38:27;;;;;;;10.98;6.45;;;;;;;20.42;99.38;93315.72;5089806;28;20044;-79
2022/08/10 05:40:54;;;;;;;15.75;6.90;;;;;;;20.50;99.50;93322.97;5088790;28;20139;-79
2022/08/10 05:43:22;;;;;;;14.45;7.07;;;;;;;20.49;98.26;93299.75;5092149;28;20491;-79
2022/08/10 05:45:51;;;;;;;11.13;6.85;;;;;;;20.66;99.43;93315.84;5099953;28;20048;-79
2022/08/10 05:48:17;;;;;;;12.10;6.90;;;;;;;20.82;98.67;93320.97;5089007;28;20048;-79
2022/08/10 05:50:44;;;;;;;16.23;7.75;;;;;;;20.98;99.80;93328.72;5088931;28;20055;-79
2022/08/10 05:53:12;;;;;;;13.43;7.40;;;;;;;20.93;98.73;93314.66;5089370;28;20466;-79
2022/08/10 05:55:39;;;;;;;12.68;6.97;;;;;;;21.11;97.63;93324.72;5088968;28;20044;-78
2022/08/10 05:58:06;;;;;;;11.07;6.07;;;;;;;21.26;96.47;93329.03;5089328;28;20052;-78
2022/08/10 06:00:36;;;;;;;8.95;5.47;;;;;;;21.25;89.73;93296.94;5088698;28;20048;-78
2022/08/10 06:03:05;;;;;;;7.97;5.32;;;;;;;21.48;85.44;93328.63;5089511;28;20047;-78
2022/08/10 06:05:36;;;;;;;6.68;4.50;;;;;;;21.43;82.80;93331.28;5093045;28;20044;-78
2022/08/10 06:08:08;;;;;;;5.40;4.25;;;;;;;21.39;80.93;93341.50;5092897;28;20127;-78
2022/08/10 06:10:38;;;;;;;6.97;4.28;;;;;;;21.47;82.47;93325.22;5092412;28;20036;-77
2022/08/10 06:15:53;;;;;;;7.72;4.78;;;;;;;22.00;78.31;93326.28;5093586;28;20089;-77
2022/08/10 06:18:20;;;;;;;6.07;4.60;;;;;;;21.82;75.81;93317.34;5092354;28;20098;-79
2022/08/10 06:20:47;;;;;;;11.80;4.18;;;;;;;22.09;75.98;93342.16;5092483;28;20044;-77
2022/08/10 06:23:14;;;;;;;6.50;3.78;;;;;;;22.20;74.98;93334.97;5092140;28;20044;-79
2022/08/10 06:25:43;;;;;;;8.25;4.70;;;;;;;22.26;71.77;93331.25;5092360;28;20040;-77
2022/08/10 06:28:14;;;;;;;6.45;4.10;;;;;;;22.31;70.79;93343.47;5092348;28;20036;-77
2022/08/10 06:30:42;;;;;;;7.18;4.10;;;;;;;22.02;73.37;93339.09;5092477;28;20044;-78
2022/08/10 06:33:10;;;;;;;6.72;4.25;;;;;;;22.01;73.56;93343.56;5092204;28;20052;-77
2022/08/10 06:35:38;;;;;;;9.23;5.13;;;;;;;22.08;76.71;93350.28;5091929;28;20519;-78
2022/08/10 06:38:07;;;;;;;6.82;4.97;;;;;;;21.97;78.58;93352.22;5092361;28;20040;-78
2022/08/10 06:40:37;;;;;;;6.25;4.43;;;;;;;22.26;77.90;93343.56;5091954;28;20048;-78
2022/08/10 06:43:10;;;;;;;12.48;4.80;;;;;;;22.64;77.85;93351.47;5093321;28;20043;-78
2022/08/10 06:45:43;;;;;;;9.38;5.00;;;;;;;22.56;73.64;93341.66;5104191;28;20109;-77
2022/08/10 06:48:16;;;;;;;7.03;4.72;;;;;;;22.47;74.43;93344.09;5091861;28;20052;-78
2022/08/10 06:50:47;;;;;;;8.38;5.13;;;;;;;22.63;70.96;93349.94;5092193;28;20127;-78
2022/08/10 06:53:18;;;;;;;6.93;5.18;;;;;;;22.32;72.91;93315.47;5091773;28;20117;-78
2022/08/10 06:55:51;;;;;;;8.32;5.45;;;;;;;22.59;76.98;93348.16;5092002;28;20044;-78
2022/08/10 06:58:22;;;;;;;8.77;6.50;;;;;;;22.87;74.95;93350.94;5088602;28;20052;-77
2022/08/10 07:00:52;;;;;;;7.47;5.05;;;;;;;22.65;74.44;93345.22;5090049;28;20044;-77
2022/08/10 07:03:21;;;;;;;10.13;6.22;;;;;;;22.70;74.92;93333.88;5091453;28;20048;-77
2022/08/10 07:05:51;;;;;;;7.13;5.95;;;;;;;23.00;74.99;93326.63;5091425;28;20503;-77
2022/08/10 07:08:20;;;;;;;7.93;5.53;;;;;;;23.44;71.72;93335.19;5091320;28;20048;-77
2022/08/10 07:10:48;;;;;;;5.70;5.03;;;;;;;23.34;69.23;93322.25;5091181;28;20411;-77
2022/08/10 07:13:18;;;;;;;8.43;5.13;;;;;;;23.57;68.52;93338.13;5091146;28;20048;-78
2022/08/10 07:15:48;;;;;;;7.97;5.57;;;;;;;23.44;70.94;93340.44;5097076;28;20054;-76
2022/08/10 07:18:17;;;;;;;8.70;6.32;;;;;;;23.23;73.26;93337.31;5090946;28;20125;-80
2022/08/10 07:20:45;;;;;;;8.38;5.85;;;;;;;23.73;70.32;93322.88;5090971;28;20044;-81
2022/08/10 07:23:14;;;;;;;7.78;5.20;;;;;;;23.45;66.75;93321.00;5091007;28;20500;-81
2022/08/10 07:25:42;;;;;;;8.30;6.07;;;;;;;23.74;70.24;93334.94;5090815;28;20487;-79
2022/08/10 07:28:09;;;;;;;8.02;5.93;;;;;;;23.83;68.30;93332.44;5091130;28;20044;-81
2022/08/10 07:30:39;;;;;;;7.32;4.60;;;;;;;23.89;65.66;93332.03;5090808;28;20536;-81
2022/08/10 07:33:09;;;;;;;6.72;5.18;;;;;;;23.97;66.06;93322.72;5095876;28;20093;-80
2022/08/10 07:35:38;;;;;;;7.28;4.88;;;;;;;24.28;63.46;93332.66;5094476;28;20052;-81
2022/08/10 07:38:10;;;;;;;7.32;4.80;;;;;;;24.21;62.56;93340.13;5091283;28;20051;-82
2022/08/10 07:40:39;;;;;;;7.47;5.20;;;;;;;24.01;64.50;93321.06;5090623;28;20052;-80
2022/08/10 07:43:07;;;;;;;8.65;4.50;;;;;;;23.91;61.33;93331.75;5092059;28;20132;-80
2022/08/10 07:45:35;;;;;;;7.65;5.25;;;;;;;24.25;62.70;93335.88;5103322;28;20044;-82
2022/08/10 07:48:05;;;;;;;9.15;5.45;;;;;;;24.61;62.66;93328.31;5090496;28;20048;-82
2022/08/10 07:50:36;;;;;;;9.90;6.07;;;;;;;23.96;64.62;93336.13;5090866;28;20068;-81
2022/08/10 07:53:04;;;;;;;7.93;6.13;;;;;;;24.10;65.37;93325.66;5090320;28;20048;-82
2022/08/10 07:55:33;;;;;;;10.38;6.82;;;;;;;24.41;64.67;93341.59;5090662;28;20094;-81
2022/08/10 07:58:03;;;;;;;9.55;6.72;;;;;;;24.54;64.43;93323.50;5090430;28;20090;-83
2022/08/10 08:00:32;;;;;;;9.98;6.15;;;;;;;25.07;61.36;93337.09;5090377;28;20435;-82
2022/08/10 08:03:01;;;;;;;7.38;5.45;;;;;;;24.66;61.67;93312.47;5090454;28;20044;-81
2022/08/10 08:05:32;;;;;;;7.35;5.78;;;;;;;24.57;63.52;93332.63;5090149;28;20507;-81
2022/08/10 08:08:02;;;;;;;9.60;6.05;;;;;;;24.48;63.14;93322.06;5090366;28;20040;-82
2022/08/10 08:10:31;;;;;;;10.15;6.25;;;;;;;24.69;61.19;93330.28;5090743;28;20093;-81
2022/08/10 08:13:00;;;;;;;7.93;5.43;;;;;;;24.33;61.98;93331.00;5089843;28;20061;-81
2022/08/10 08:15:28;;;;;;;9.57;5.97;;;;;;;24.71;62.04;93308.97;5090048;28;20072;-82
2022/08/10 08:17:56;;;;;;;10.57;5.38;;;;;;;24.76;60.52;93328.00;5090088;28;20048;-79
2022/08/10 08:20:24;;;;;;;7.45;4.80;;;;;;;24.81;59.23;93316.63;5089677;28;20130;-81
2022/08/10 08:22:52;;;;;;;8.43;5.32;;;;;;;24.68;60.75;93318.22;5089527;28;20078;-81
2022/08/10 08:25:22;;;;;;;7.15;5.30;;;;;;;24.81;59.77;93329.78;5107393;28;20124;-82
2022/08/10 08:27:54;;;;;;;7.28;5.88;;;;;;;25.22;59.99;93318.34;5090911;28;20044;-82
2022/08/10 08:30:23;;;;;;;8.75;5.65;;;;;;;25.33;58.93;93318.88;5096390;28;20081;-81
2022/08/10 08:33:14;;;;;;;9.57;6.32;;;;;;;25.59;56.47;93309.63;5107366;28;20073;-80
2022/08/10 08:35:42;;;;;;;7.53;6.10;;;;;;;25.58;58.65;93311.47;5091178;28;20055;-81
2022/08/10 08:38:10;;;;;;;11.68;6.20;;;;;;;25.18;58.65;93314.75;5089868;28;20048;-80
2022/08/10 08:40:44;;;;;;;13.45;7.93;;;;;;;24.94;62.14;93304.53;5089585;28;20553;-83
2022/08/10 08:43:26;;;;;;;9.98;7.32;;;;;;;25.37;60.27;93302.50;5091548;28;20106;-81
2022/08/10 08:46:13;;;;;;;9.68;6.60;;;;;;;25.25;58.85;93276.75;5099941;28;20102;-81
2022/08/10 08:48:56;;;;;;;9.35;6.57;;;;;;;25.57;59.55;93314.41;5092261;28;20109;-81
2022/08/10 08:51:33;;;;;;;8.48;6.95;;;;;;;25.88;59.27;93311.75;5107414;28;20057;-81
2022/08/10 08:54:15;;;;;;;7.63;6.13;;;;;;;25.47;59.13;93300.38;5109713;28;20047;-80
2022/08/10 08:56:49;;;;;;;8.48;6.40;;;;;;;25.84;58.12;93316.09;5109410;28;20459;-80
2022/08/10 08:59:30;;;;;;;8.00;6.50;;;;;;;25.54;59.76;93323.66;5103869;28;20526;-82
2022/08/10 09:02:17;;;;;;;10.32;6.82;;;;;;;24.98;59.88;93312.63;5089595;28;20044;-81
2022/08/10 09:04:58;;;;;;;9.88;6.38;;;;;;;25.73;59.37;93306.91;5089500;28;20127;-81
2022/08/10 09:08:05;;;;;;;7.88;6.38;;;;;;;25.61;58.16;93317.97;5089411;28;20400;-81
2022/08/10 09:10:43;;;;;;;10.35;6.97;;;;;;;25.83;60.61;93313.75;5026756;28;20057;-80
2022/08/10 09:13:25;;;;;;;8.23;6.00;;;;;;;25.46;59.08;93312.00;5026948;28;20049;-85
2022/08/10 09:15:59;;;;;;;7.60;5.75;;;;;;;25.58;59.10;93300.94;5068573;28;20040;-83
2022/08/10 09:18:38;;;;;;;7.50;5.80;;;;;;;25.61;57.45;93302.19;5089377;28;20090;-83
2022/08/10 09:21:13;;;;;;;8.70;5.47;;;;;;;26.05;56.18;93310.25;5089584;28;20055;-81
2022/08/10 09:23:46;;;;;;;9.50;5.40;;;;;;;26.03;56.68;93296.66;5089492;28;20048;-81
2022/08/10 09:26:19;;;;;;;8.70;6.43;;;;;;;26.08;55.75;93301.78;5089035;28;20051;-81
2022/08/10 09:28:50;;;;;;;8.98;5.95;;;;;;;26.12;56.51;93307.19;5089661;28;21236;-81
2022/08/10 09:31:20;;;;;;;10.32;6.85;;;;;;;25.80;57.09;93309.09;5089058;28;20420;-82
2022/08/10 09:33:59;;;;;;;7.72;6.10;;;;;;;26.09;56.34;93302.53;5089299;28;20055;-82
2022/08/10 09:36:44;;;;;;;14.77;6.95;;;;;;;26.11;54.94;93297.75;5094977;28;20819;-82
2022/08/10 09:39:16;;;;;;;9.90;7.70;;;;;;;26.40;56.86;93280.66;5093930;28;20400;-81
2022/08/10 09:41:51;;;;;;;9.20;6.32;;;;;;;26.24;57.80;93296.13;5095059;28;20094;-83
2022/08/10 09:44:38;;;;;;;7.82;5.85;;;;;;;25.84;54.97;93252.16;5112925;28;20396;-83
2022/08/10 09:47:20;;;;;;;6.53;5.43;;;;;;;26.13;55.94;93303.47;5108089;28;20101;-82
2022/08/10 09:50:01;;;;;;;9.23;7.05;;;;;;;26.09;57.72;93295.41;5093199;28;20097;-82
2022/08/10 09:52:41;;;;;;;8.65;7.03;;;;;;;26.75;55.62;93285.19;5093317;28;20403;-83
2022/08/10 09:55:17;;;;;;;9.85;6.43;;;;;;;26.71;55.18;93284.25;5099507;28;20084;-83
2022/08/10 09:57:56;;;;;;;7.72;6.45;;;;;;;26.64;55.13;93269.66;5093201;28;20075;-82
2022/08/10 10:00:34;;;;;;;10.15;6.82;;;;;;;27.41;53.48;93267.59;5092698;28;20428;-83
2022/08/10 10:03:13;;;;;;;8.63;6.25;;;;;;;27.65;52.78;93266.28;5092739;28;20055;-82
2022/08/10 10:05:51;;;;;;;6.63;4.70;;;;;;;27.28;51.13;93280.66;5093129;28;20093;-83
2022/08/10 10:08:26;;;;;;;7.70;5.30;;;;;;;27.69;51.09;93269.84;5092779;28;20055;-83
2022/08/10 10:11:11;;;;;;;7.60;4.65;;;;;;;27.35;49.17;93277.53;5092563;28;20059;-81
2022/08/10 10:13:49;;;;;;;7.38;4.07;;;;;;;27.07;48.06;93268.13;5092416;28;20489;-82
2022/08/10 10:16:27;;;;;;;6.80;4.20;;;;;;;27.25;49.89;93251.50;5090905;28;20044;-83
2022/08/10 10:19:07;;;;;;;6.07;4.05;;;;;;;27.74;49.47;93245.94;5090780;28;20112;-83
2022/08/10 10:21:43;;;;;;;9.07;3.90;;;;;;;27.13;49.48;93249.50;5091935;28;20048;-83
2022/08/10 10:24:19;;;;;;;8.15;4.15;;;;;;;27.39;50.27;93260.00;5092292;28;20446;-84
2022/08/10 10:26:52;;;;;;;6.10;3.55;;;;;;;27.31;49.48;93243.09;5091958;28;20559;-84
2022/08/10 10:29:30;;;;;;;4.68;3.58;;;;;;;27.54;49.13;93255.31;5091893;28;20040;-84
2022/08/10 10:32:06;;;;;;;5.88;3.70;;;;;;;27.81;47.95;93250.72;5103894;28;20460;-83
2022/08/10 10:34:40;;;;;;;4.82;3.80;;;;;;;28.18;46.86;93243.06;5091976;28;20048;-83
2022/08/10 10:37:09;;;;;;;7.55;3.53;;;;;;;27.36;47.82;93250.09;5091599;28;20464;-84
2022/08/10 10:39:42;;;;;;;4.65;3.10;;;;;;;27.58;47.66;93240.41;5091600;28;20044;-82
2022/08/10 10:42:21;;;;;;;4.57;3.28;;;;;;;27.16;48.31;93241.75;5091900;28;20039;-83
2022/08/10 10:44:56;;;;;;;4.97;3.60;;;;;;;27.00;47.55;93230.94;5100187;28;20117;-81
2022/08/10 10:47:49;;;;;;;4.30;2.88;;;;;;;27.03;48.08;93219.75;5091723;28;20055;-83
2022/08/10 10:50:21;;;;;;;3.92;2.72;;;;;;;27.42;47.48;93232.22;5104996;28;20040;-82
2022/08/10 10:53:02;;;;;;;5.60;3.38;;;;;;;27.76;46.66;93221.88;5093971;28;20044;-82
2022/08/10 10:55:44;;;;;;;8.07;3.05;;;;;;;27.67;47.02;93208.72;5097528;28;20096;-84
2022/08/10 10:58:24;;;;;;;4.07;2.53;;;;;;;27.01;47.68;93221.94;5101916;28;20380;-81
2022/08/10 11:01:10;;;;;;;5.75;2.90;;;;;;;26.86;49.15;93225.81;5101890;28;20051;-83
2022/08/10 11:03:50;;;;;;;5.30;3.47;;;;;;;26.33;49.48;93225.03;5097031;28;20070;-80
2022/08/10 11:06:29;;;;;;;5.15;2.97;;;;;;;26.49;51.16;93217.44;5099728;28;20055;-79
2022/08/10 11:09:00;;;;;;;6.00;3.47;;;;;;;26.41;50.15;93222.41;5091263;28;20051;-83
2022/08/10 11:11:32;;;;;;;4.68;2.97;;;;;;;26.76;51.44;93205.78;5091169;28;20048;-78
2022/08/10 11:14:11;;;;;;;5.60;3.10;;;;;;;27.45;48.97;93210.50;5090926;28;20040;-78
2022/08/10 11:16:46;;;;;;;7.00;3.47;;;;;;;27.22;48.84;93216.00;5091240;28;20078;-79
2022/08/10 11:19:19;;;;;;;5.05;3.03;;;;;;;27.46;49.45;93218.06;5091253;28;20047;-78
2022/08/10 11:21:57;;;;;;;3.80;2.65;;;;;;;27.16;49.51;93210.09;5091427;28;20048;-79
2022/08/10 11:24:33;;;;;;;4.28;3.17;;;;;;;27.54;49.16;93215.72;5091137;28;20094;-80
2022/08/10 11:27:07;;;;;;;4.13;2.90;;;;;;;27.14;49.69;93209.66;5091217;28;20130;-79
2022/08/10 11:29:43;;;;;;;6.35;3.03;;;;;;;27.56;48.50;93214.31;5090728;28;20113;-78
2022/08/10 11:32:17;;;;;;;3.90;3.08;;;;;;;27.79;48.58;93208.81;5090760;28;20462;-78
2022/08/10 11:34:53;;;;;;;4.15;3.08;;;;;;;27.47;48.71;93209.09;5090419;28;20044;-78
2022/08/10 11:37:29;;;;;;;5.68;3.03;;;;;;;27.47;47.63;93211.72;5090691;28;20036;-78
2022/08/10 11:39:59;;;;;;;6.65;3.90;;;;;;;27.72;46.66;93200.63;5089947;28;20499;-75
2022/08/10 11:42:36;;;;;;;4.20;3.30;;;;;;;27.69;45.46;93194.13;5090641;28;20101;-80
2022/08/10 11:45:09;;;;;;;4.55;3.30;;;;;;;27.46;46.44;93198.84;5105188;28;20113;-77
2022/08/10 11:47:48;;;;;;;5.30;3.05;;;;;;;27.77;45.34;93199.66;5090868;28;20052;-78
2022/08/10 11:50:23;;;;;;;6.57;3.42;;;;;;;27.47;46.00;93182.72;5090616;28;20044;-78
2022/08/10 11:52:59;;;;;;;4.47;2.97;;;;;;;26.86;45.81;93165.19;5090687;28;20101;-78
2022/08/10 11:55:31;;;;;;;4.72;2.70;;;;;;;26.98;45.94;93175.09;5090745;28;20051;-78